createdAt,value
2019-03-04T00:02:27.647Z,19.37
2019-03-04T00:04:57.571Z,22.23
2019-03-04T00:07:27.454Z,22.70
2019-03-04T00:09:57.297Z,21.90
2019-03-04T00:12:27.165Z,18.00
2019-03-04T00:14:57.025Z,20.60
2019-03-04T00:17:26.865Z,18.30
2019-03-04T00:19:56.749Z,19.40
2019-03-04T00:22:26.557Z,22.03
2019-03-04T00:24:56.397Z,22.07
2019-03-04T00:27:26.235Z,18.97
2019-03-04T00:29:56.034Z,22.97
2019-03-04T00:32:25.917Z,20.50
2019-03-04T00:34:58.642Z,23.23
2019-03-04T00:37:28.627Z,19.43
2019-03-04T00:40:00.047Z,16.53
2019-03-04T00:42:30.003Z,22.17
2019-03-04T00:44:59.849Z,19.33
2019-03-04T00:47:29.713Z,21.90
2019-03-04T00:49:59.538Z,19.07
2019-03-04T00:52:29.381Z,20.63
2019-03-04T00:54:59.634Z,21.13
2019-03-04T00:57:29.464Z,15.17
2019-03-04T00:59:59.316Z,18.47
2019-03-04T01:02:29.203Z,17.80
2019-03-04T01:04:59.053Z,15.20
2019-03-04T01:07:28.933Z,17.53
2019-03-04T01:09:58.796Z,15.77
2019-03-04T01:12:28.649Z,18.90
2019-03-04T01:14:58.528Z,14.37
2019-03-04T01:17:28.362Z,14.37
2019-03-04T01:19:58.189Z,17.33
2019-03-04T01:22:28.120Z,15.63
2019-03-04T01:24:57.959Z,14.73
2019-03-04T01:27:27.859Z,14.60
2019-03-04T01:29:57.696Z,13.73
2019-03-04T01:32:46.925Z,13.37
2019-03-04T01:35:17.909Z,12.43
2019-03-04T01:37:47.712Z,17.93
2019-03-04T01:40:20.544Z,13.97
2019-03-04T01:42:50.413Z,10.67
2019-03-04T01:45:20.186Z,13.37
2019-03-04T01:47:50.062Z,12.67
2019-03-04T01:50:19.985Z,12.03
2019-03-04T01:52:50.345Z,13.57
2019-03-04T01:55:21.577Z,12.40
2019-03-04T01:57:52.992Z,12.77
2019-03-04T02:00:23.444Z,12.00
2019-03-04T02:02:53.292Z,12.07
2019-03-04T02:05:23.377Z,11.07
2019-03-04T02:07:53.258Z,10.03
2019-03-04T02:10:23.176Z,15.53
2019-03-04T02:12:54.571Z,9.63
2019-03-04T02:15:24.822Z,10.90
2019-03-04T02:17:54.613Z,9.03
2019-03-04T02:20:24.549Z,9.80
2019-03-04T02:22:54.454Z,8.17
2019-03-04T02:25:41.978Z,14.33
2019-03-04T02:28:11.809Z,10.43
2019-03-04T02:30:45.521Z,9.07
2019-03-04T02:33:15.529Z,12.27
2019-03-04T02:35:45.576Z,11.40
2019-03-04T02:38:17.074Z,12.97
2019-03-04T02:40:46.933Z,12.50
2019-03-04T02:43:17.773Z,13.83
2019-03-04T02:45:47.590Z,10.20
2019-03-04T02:48:17.518Z,13.07
2019-03-04T02:50:48.460Z,14.70
2019-03-04T02:53:19.290Z,11.97
2019-03-04T02:55:49.078Z,12.63
2019-03-04T02:58:19.649Z,10.13
2019-03-04T03:00:50.975Z,10.07
2019-03-04T03:03:21.827Z,12.20
2019-03-04T03:05:51.854Z,11.00
2019-03-04T03:08:21.754Z,10.10
2019-03-04T03:10:53.210Z,12.37
2019-03-04T03:13:23.070Z,11.67
2019-03-04T03:15:52.901Z,10.87
2019-03-04T03:18:22.890Z,14.10
2019-03-04T03:20:52.806Z,12.43
2019-03-04T03:23:22.705Z,10.00
2019-03-04T03:25:55.558Z,13.30
2019-03-04T03:28:26.259Z,15.47
2019-03-04T03:30:56.042Z,12.87
2019-03-04T03:33:25.830Z,11.20
2019-03-04T03:35:55.729Z,9.90
2019-03-04T03:38:25.562Z,8.10
2019-03-04T03:40:55.431Z,13.73
2019-03-04T03:43:25.262Z,12.37
2019-03-04T03:45:55.035Z,10.80
2019-03-04T03:48:26.818Z,13.00
2019-03-04T03:50:56.704Z,11.23
2019-03-04T03:53:26.596Z,12.20
2019-03-04T03:55:56.425Z,11.73
2019-03-04T03:58:26.247Z,11.77
2019-03-04T04:00:56.072Z,14.67
2019-03-04T04:03:25.862Z,16.53
2019-03-04T04:05:55.715Z,17.13
2019-03-04T04:08:25.555Z,13.70
2019-03-04T04:10:55.427Z,13.17
2019-03-04T04:13:28.054Z,16.10
2019-03-04T04:15:57.837Z,15.70
2019-03-04T04:18:36.858Z,13.33
2019-03-04T04:21:06.705Z,14.30
2019-03-04T04:23:36.612Z,15.13
2019-03-04T04:26:08.024Z,10.57
2019-03-04T04:28:37.867Z,13.07
2019-03-04T04:31:07.783Z,12.40
2019-03-04T04:33:37.670Z,13.07
2019-03-04T04:36:07.614Z,9.77
2019-03-04T04:38:37.497Z,11.03
2019-03-04T04:41:08.332Z,9.60
2019-03-04T04:43:38.203Z,10.93
2019-03-04T04:46:08.053Z,10.87
2019-03-04T04:48:38.542Z,11.10
2019-03-04T04:51:09.757Z,10.07
2019-03-04T04:53:39.679Z,9.43
2019-03-04T04:56:11.138Z,11.90
2019-03-04T04:58:41.413Z,14.23
2019-03-04T05:01:11.299Z,14.10
2019-03-04T05:03:41.139Z,10.17
2019-03-04T05:06:13.024Z,12.20
2019-03-04T05:08:42.433Z,12.63
2019-03-04T05:11:12.286Z,13.90
2019-03-04T05:13:42.132Z,12.10
2019-03-04T05:16:12.120Z,14.60
2019-03-04T05:18:41.966Z,10.70
2019-03-04T05:21:11.791Z,11.17
2019-03-04T05:23:41.651Z,8.83
2019-03-04T05:26:11.586Z,12.03
2019-03-04T05:28:41.474Z,9.50
2019-03-04T05:31:11.328Z,12.20
2019-03-04T05:33:41.126Z,9.83
2019-03-04T05:36:10.966Z,11.00
2019-03-04T05:38:40.775Z,8.83
2019-03-04T05:41:12.219Z,10.57
2019-03-04T05:43:42.035Z,11.20
2019-03-04T05:46:11.876Z,17.93
2019-03-04T05:48:41.770Z,15.70
2019-03-04T05:51:11.576Z,12.30
2019-03-04T05:53:41.376Z,12.10
2019-03-04T05:56:11.967Z,12.83
2019-03-04T05:58:41.789Z,12.57
2019-03-04T06:01:17.476Z,13.97
2019-03-04T06:04:03.070Z,15.27
2019-03-04T06:06:49.838Z,14.40
2019-03-04T06:09:19.687Z,12.87
2019-03-04T06:11:49.512Z,15.13
2019-03-04T06:14:19.361Z,15.13
2019-03-04T06:16:49.187Z,18.17
2019-03-04T06:19:19.097Z,25.10
2019-03-04T06:21:49.094Z,13.80
2019-03-04T06:24:19.288Z,13.57
2019-03-04T06:26:49.207Z,18.90
2019-03-04T06:29:20.506Z,14.53
2019-03-04T06:31:50.430Z,17.07
2019-03-04T06:34:20.295Z,13.93
2019-03-04T06:36:50.165Z,14.60
2019-03-04T06:39:20.126Z,17.67
2019-03-04T06:41:50.048Z,14.07
2019-03-04T06:44:19.907Z,15.30
2019-03-04T06:46:49.827Z,19.20
2019-03-04T06:49:24.056Z,16.57
2019-03-04T06:51:53.527Z,17.73
2019-03-04T06:54:39.227Z,16.13
2019-03-04T06:57:12.105Z,19.60
2019-03-04T06:59:50.665Z,18.03
2019-03-04T07:02:32.128Z,17.27
2019-03-04T07:05:20.968Z,17.40
2019-03-04T07:07:50.967Z,17.10
2019-03-04T07:10:22.165Z,19.20
2019-03-04T07:12:52.045Z,19.43
2019-03-04T07:15:21.925Z,28.03
2019-03-04T07:17:51.767Z,23.40
2019-03-04T07:20:22.214Z,14.50
2019-03-04T07:22:52.048Z,17.47
2019-03-04T07:25:21.925Z,13.97
2019-03-04T07:27:51.866Z,19.43
2019-03-04T07:30:21.726Z,11.90
2019-03-04T07:32:52.721Z,11.73
2019-03-04T07:35:22.561Z,14.80
2019-03-04T07:38:01.406Z,11.10
2019-03-04T07:40:32.537Z,13.37
2019-03-04T07:43:02.422Z,10.90
2019-03-04T07:45:33.785Z,11.67
2019-03-04T07:48:03.665Z,15.17
2019-03-04T07:50:33.567Z,11.50
2019-03-04T07:53:03.445Z,12.83
2019-03-04T07:55:33.284Z,10.20
2019-03-04T07:58:03.305Z,13.60
2019-03-04T08:00:33.365Z,14.33
2019-03-04T08:03:03.225Z,10.88
2019-03-04T08:05:36.445Z,14.38
2019-03-04T08:08:08.606Z,10.15
2019-03-04T08:10:57.965Z,22.10
2019-03-04T08:13:33.565Z,33.23
2019-03-04T08:16:03.768Z,11.15
2019-03-04T08:18:33.645Z,14.63
2019-03-04T08:21:03.549Z,12.98
2019-03-04T08:23:33.445Z,13.25
2019-03-04T08:26:03.508Z,16.57
2019-03-04T08:28:33.492Z,14.18
2019-03-04T08:31:05.145Z,10.00
2019-03-04T08:33:38.365Z,9.85
2019-03-04T08:36:10.146Z,24.25
2019-03-04T08:38:40.026Z,27.37
2019-03-04T08:41:11.942Z,10.82
2019-03-04T08:43:44.405Z,10.40
2019-03-04T08:46:16.217Z,13.13
2019-03-04T08:48:48.408Z,11.28
2019-03-04T08:51:18.485Z,11.78
2019-03-04T08:53:48.393Z,11.45
2019-03-04T08:56:18.385Z,9.73
2019-03-04T08:58:50.130Z,12.25
2019-03-04T09:01:20.026Z,9.13
2019-03-04T09:03:49.966Z,9.75
2019-03-04T09:06:19.925Z,10.95
2019-03-04T09:08:49.885Z,15.80
2019-03-04T09:11:19.794Z,8.78
2019-03-04T09:13:49.846Z,8.10
2019-03-04T09:16:19.706Z,11.03
2019-03-04T09:18:51.129Z,13.32
2019-03-04T09:21:21.045Z,11.48
2019-03-04T09:23:51.006Z,10.05
2019-03-04T09:26:20.917Z,10.03
2019-03-04T09:28:51.032Z,11.22
2019-03-04T09:31:22.605Z,11.63
2019-03-04T09:33:52.585Z,13.48
2019-03-04T09:36:22.485Z,8.63
2019-03-04T09:38:52.667Z,27.35
2019-03-04T09:41:22.885Z,9.95
2019-03-04T09:43:52.846Z,10.68
2019-03-04T09:46:23.406Z,8.63
2019-03-04T09:48:54.806Z,7.65
2019-03-04T09:51:26.166Z,9.55
2019-03-04T09:53:57.285Z,8.73
2019-03-04T09:56:27.505Z,10.38
2019-03-04T09:59:00.466Z,13.10
2019-03-04T10:01:33.337Z,8.73
2019-03-04T10:04:08.945Z,8.00
2019-03-04T10:06:59.978Z,12.25
2019-03-04T10:09:32.845Z,9.10
2019-03-04T10:12:32.865Z,8.55
2019-03-04T10:15:11.501Z,8.55
2019-03-04T10:18:04.926Z,8.58
2019-03-04T10:20:46.420Z,9.38
2019-03-04T10:23:46.186Z,12.00
2019-03-04T10:26:37.386Z,12.28
2019-03-04T10:29:30.966Z,11.43
2019-03-04T10:32:16.566Z,9.20
2019-03-04T10:34:58.685Z,6.95
2019-03-04T10:37:50.754Z,6.85
2019-03-04T10:40:40.186Z,13.45
2019-03-04T10:43:34.226Z,6.62
2019-03-04T10:46:16.285Z,8.60
2019-03-04T10:48:46.297Z,7.62
2019-03-04T10:51:17.082Z,13.30
2019-03-04T10:53:48.146Z,9.30
2019-03-04T10:56:18.398Z,6.65
2019-03-04T10:58:48.289Z,10.38
2019-03-04T11:01:18.170Z,21.02
2019-03-04T11:03:48.005Z,11.85
2019-03-04T11:06:17.946Z,7.08
2019-03-04T11:08:47.825Z,15.83
2019-03-04T11:11:17.726Z,6.08
2019-03-04T11:13:48.606Z,8.03
2019-03-04T11:16:18.506Z,9.95
2019-03-04T11:18:50.362Z,8.15
2019-03-04T11:21:21.393Z,10.18
2019-03-04T11:23:53.485Z,8.28
2019-03-04T11:26:23.485Z,7.28
2019-03-04T11:28:53.713Z,7.50
2019-03-04T11:31:23.577Z,6.55
2019-03-04T11:33:53.586Z,10.23
2019-03-04T11:36:23.446Z,7.42
2019-03-04T11:38:56.325Z,6.85
2019-03-04T11:41:26.226Z,15.45
2019-03-04T11:43:57.347Z,7.53
2019-03-04T11:46:27.246Z,11.03
2019-03-04T11:48:58.606Z,6.75
2019-03-04T11:51:28.985Z,11.05
2019-03-04T11:53:58.846Z,6.80
2019-03-04T11:56:31.817Z,6.10
2019-03-04T11:59:01.645Z,20.65
2019-03-04T12:01:33.150Z,5.97
2019-03-04T12:04:03.249Z,5.35
2019-03-04T12:06:34.765Z,6.37
2019-03-04T12:09:09.006Z,7.87
2019-03-04T12:11:40.506Z,7.62
2019-03-04T12:14:10.346Z,9.83
2019-03-04T12:16:41.287Z,5.85
2019-03-04T12:19:11.305Z,6.70
2019-03-04T12:21:41.218Z,6.53
2019-03-04T12:24:11.332Z,7.22
2019-03-04T12:26:42.850Z,7.95
2019-03-04T12:29:12.885Z,4.90
2019-03-04T12:31:44.469Z,5.58
2019-03-04T12:34:24.382Z,5.55
2019-03-04T12:36:47.926Z,7.92
2019-03-04T12:39:17.886Z,8.73
2019-03-04T12:41:49.678Z,5.08
2019-03-04T12:44:19.290Z,7.03
2019-03-04T12:46:49.210Z,5.78
2019-03-04T12:49:19.042Z,12.93
2019-03-04T12:51:49.209Z,6.78
2019-03-04T12:54:20.190Z,4.22
2019-03-04T12:56:50.117Z,6.37
2019-03-04T12:59:19.949Z,5.53
2019-03-04T13:01:50.095Z,8.23
2019-03-04T13:04:21.117Z,7.08
2019-03-04T13:06:51.346Z,6.03
2019-03-04T13:09:21.245Z,5.50
2019-03-04T13:11:51.109Z,7.42
2019-03-04T13:14:21.150Z,6.03
2019-03-04T13:16:52.471Z,5.45
2019-03-04T13:19:22.624Z,6.67
2019-03-04T13:21:52.773Z,4.37
2019-03-04T13:24:23.052Z,7.92
2019-03-04T13:26:54.251Z,8.20
2019-03-04T13:29:24.371Z,4.65
2019-03-04T13:31:54.412Z,8.78
2019-03-04T13:34:24.451Z,5.58
2019-03-04T13:36:54.576Z,4.83
2019-03-04T13:39:24.656Z,7.05
2019-03-04T13:41:54.732Z,5.30
2019-03-04T13:44:24.812Z,7.08
2019-03-04T13:46:56.213Z,4.67
2019-03-04T13:49:26.135Z,5.55
2019-03-04T13:51:57.931Z,6.22
2019-03-04T13:54:31.095Z,8.58
2019-03-04T13:57:02.291Z,7.87
2019-03-04T13:59:32.331Z,11.90
2019-03-04T14:02:02.456Z,8.20
2019-03-04T14:04:32.576Z,5.78
2019-03-04T14:07:02.777Z,4.75
2019-03-04T14:12:43.851Z,4.25
2019-03-04T14:15:25.402Z,9.98
2019-03-04T14:17:59.052Z,4.15
2019-03-04T14:20:30.531Z,6.90
2019-03-04T14:23:00.501Z,4.97
2019-03-04T14:25:33.564Z,3.83
2019-03-04T14:28:03.974Z,12.30
2019-03-04T14:30:34.251Z,11.03
2019-03-04T14:33:05.417Z,12.70
2019-03-04T14:35:35.616Z,7.60
2019-03-04T14:38:05.922Z,6.67
2019-03-04T14:40:36.135Z,5.50
2019-03-04T14:43:06.496Z,7.53
2019-03-04T14:45:37.931Z,12.05
2019-03-04T14:48:08.372Z,11.03
2019-03-04T14:50:42.091Z,15.15
2019-03-04T14:53:12.691Z,11.10
2019-03-04T14:55:43.613Z,9.95
2019-03-04T14:58:14.015Z,10.03
2019-03-04T15:00:45.936Z,12.88
2019-03-04T15:03:23.119Z,6.33
2019-03-04T15:05:48.332Z,7.55
2019-03-04T15:08:23.972Z,12.07
2019-03-04T15:10:56.896Z,11.18
2019-03-04T15:13:27.003Z,11.08
2019-03-04T15:16:02.583Z,9.18
2019-03-04T15:18:42.218Z,7.85
2019-03-04T15:21:12.455Z,13.55
2019-03-04T15:23:44.411Z,20.00
2019-03-04T15:26:14.931Z,11.83
2019-03-04T15:28:45.052Z,9.20
2019-03-04T15:31:15.255Z,14.68
2019-03-04T15:33:45.491Z,12.90
2019-03-04T15:36:15.726Z,10.65
2019-03-04T15:38:47.695Z,17.20
2019-03-04T15:41:18.053Z,17.27
2019-03-04T15:43:48.269Z,13.80
2019-03-04T15:46:18.653Z,15.10
2019-03-04T15:48:50.211Z,9.25
2019-03-04T15:51:22.814Z,13.72
2019-03-04T15:53:54.897Z,10.10
2019-03-04T15:56:30.094Z,10.43
2019-03-04T15:59:01.777Z,19.40
2019-03-04T16:01:37.014Z,13.95
2019-03-04T16:04:08.696Z,23.20
2019-03-04T16:06:39.051Z,22.58
2019-03-04T16:09:18.851Z,24.52
2019-03-04T16:11:50.424Z,20.72
2019-03-04T16:14:22.162Z,19.67
2019-03-04T16:16:54.574Z,28.25
2019-03-04T16:19:24.811Z,19.85
2019-03-04T16:21:55.051Z,25.45
2019-03-04T16:24:25.452Z,21.65
2019-03-04T16:26:55.781Z,20.00
2019-03-04T16:29:26.224Z,31.07
2019-03-04T16:31:57.212Z,37.08
2019-03-04T16:34:27.531Z,26.68
2019-03-04T16:37:03.735Z,53.30
2019-03-04T16:39:35.413Z,42.15
2019-03-04T16:42:09.214Z,52.43
2019-03-04T16:44:40.101Z,43.92
2019-03-04T16:47:11.972Z,41.53
2019-03-04T16:49:45.598Z,53.23
2019-03-04T16:52:15.459Z,51.23
2019-03-04T16:54:48.772Z,51.48
2019-03-04T16:57:24.415Z,45.05
2019-03-04T16:59:56.332Z,45.60
2019-03-04T17:02:28.691Z,33.88
2019-03-04T17:05:00.660Z,24.30
2019-03-04T17:07:36.412Z,38.35
2019-03-04T17:10:13.252Z,25.23
2019-03-04T17:12:43.692Z,28.73
2019-03-04T17:15:21.093Z,25.17
2019-03-04T17:17:51.771Z,28.57
2019-03-04T17:20:22.252Z,42.98
2019-03-04T17:22:52.738Z,26.77
2019-03-04T17:25:26.499Z,22.93
2019-03-04T17:27:56.943Z,36.58
2019-03-04T17:30:29.136Z,27.80
2019-03-04T17:32:59.580Z,27.58
2019-03-04T17:35:31.377Z,29.80
2019-03-04T17:38:06.853Z,29.63
2019-03-04T17:40:43.412Z,32.48
2019-03-04T17:43:16.771Z,31.33
2019-03-04T17:45:47.092Z,29.92
2019-03-04T17:48:18.925Z,33.95
2019-03-04T17:50:49.232Z,38.00
2019-03-04T17:53:21.009Z,35.73
2019-03-04T17:55:51.280Z,37.28
2019-03-04T17:58:23.391Z,39.50
2019-03-04T18:00:57.328Z,34.85
2019-03-04T18:03:27.823Z,37.80
2019-03-04T18:06:02.675Z,35.43
2019-03-04T18:08:32.227Z,40.00
2019-03-04T18:11:04.034Z,37.35
2019-03-04T18:13:38.574Z,38.55
2019-03-04T18:16:08.617Z,36.93
2019-03-04T18:18:40.278Z,37.90
2019-03-04T18:21:11.075Z,33.45
2019-03-04T18:23:42.634Z,31.02
2019-03-04T18:26:24.402Z,38.33
2019-03-04T18:29:09.996Z,31.33
2019-03-04T18:31:48.633Z,38.58
2019-03-04T18:34:43.991Z,32.15
2019-03-04T18:37:45.419Z,35.35
2019-03-04T18:40:41.143Z,33.28
2019-03-04T18:43:31.843Z,34.95
2019-03-04T18:46:22.712Z,31.95
2019-03-04T18:48:57.876Z,33.00
2019-03-04T18:51:28.542Z,30.05
2019-03-04T18:54:02.355Z,24.23
2019-03-04T18:56:33.280Z,28.70
2019-03-04T18:59:05.557Z,26.77
2019-03-04T19:01:36.307Z,24.25
2019-03-04T19:04:07.179Z,23.92
2019-03-04T19:06:37.817Z,22.65
2019-03-04T19:09:10.072Z,23.92
2019-03-04T19:11:44.340Z,24.15
2019-03-04T19:14:18.645Z,19.15
2019-03-04T19:16:50.602Z,16.55
2019-03-04T19:19:21.815Z,27.20
2019-03-04T19:21:59.782Z,37.73
2019-03-04T19:24:30.134Z,44.30
2019-03-04T19:27:07.726Z,51.30
2019-03-04T19:29:39.708Z,54.45
2019-03-04T19:32:09.780Z,40.07
2019-03-04T19:34:39.926Z,45.47
2019-03-04T19:37:10.531Z,31.10
2019-03-04T19:39:43.819Z,29.80
2019-03-04T19:42:23.567Z,23.57
2019-03-04T19:45:15.247Z,17.80
2019-03-04T19:47:49.860Z,17.27
2019-03-04T19:50:31.164Z,21.00
2019-03-04T19:53:23.884Z,16.00
2019-03-04T19:55:59.631Z,30.17
2019-03-04T19:58:34.879Z,15.87
2019-03-04T20:01:07.687Z,16.53
2019-03-04T20:03:44.847Z,15.97
2019-03-04T20:06:18.214Z,16.53
2019-03-04T20:08:55.255Z,17.53
2019-03-04T20:11:27.411Z,19.37
2019-03-04T20:13:59.302Z,15.43
2019-03-04T20:16:32.568Z,14.73
2019-03-04T20:19:02.886Z,15.83
2019-03-04T20:21:33.114Z,11.90
2019-03-04T20:24:06.217Z,10.53
2019-03-04T20:26:37.887Z,10.90
2019-03-04T20:29:09.312Z,14.00
2019-03-04T20:31:40.899Z,10.93
2019-03-04T20:34:12.480Z,7.23
2019-03-04T20:36:42.859Z,10.30
2019-03-04T20:39:17.027Z,8.70
2019-03-04T20:41:48.395Z,6.20
2019-03-04T20:44:18.806Z,10.03
2019-03-04T20:46:49.638Z,8.03
2019-03-04T20:49:21.334Z,9.47
2019-03-04T20:51:51.658Z,6.40
2019-03-04T20:54:23.167Z,8.13
2019-03-04T20:57:33.901Z,6.80
2019-03-04T20:59:54.920Z,6.80
2019-03-04T21:02:29.998Z,6.93
2019-03-04T21:05:05.564Z,7.57
2019-03-04T21:07:36.203Z,6.73
2019-03-04T21:10:30.151Z,8.27
2019-03-04T21:13:14.051Z,7.00
2019-03-04T21:15:45.838Z,8.10
2019-03-04T21:18:16.003Z,9.17
2019-03-04T21:20:46.611Z,8.17
2019-03-04T21:23:17.770Z,10.17
2019-03-04T21:26:05.130Z,8.23
2019-03-04T21:29:01.526Z,9.80
2019-03-04T21:31:58.828Z,8.53
2019-03-04T21:34:37.562Z,11.87
2019-03-04T21:37:19.466Z,13.20
2019-03-04T21:39:52.263Z,10.30
2019-03-04T21:42:30.239Z,12.10
2019-03-04T21:45:37.589Z,11.20
2019-03-04T21:48:13.584Z,13.80
2019-03-04T21:51:08.171Z,14.50
2019-03-04T21:53:43.859Z,10.80
2019-03-04T21:56:18.232Z,10.97
2019-03-04T21:58:50.410Z,11.23
2019-03-04T22:01:27.397Z,13.73
2019-03-04T22:03:59.858Z,11.90
2019-03-04T22:06:31.417Z,12.60
2019-03-04T22:09:02.326Z,10.37
2019-03-04T22:11:36.198Z,12.03
2019-03-04T22:14:05.525Z,14.23
2019-03-04T22:16:36.932Z,13.23
2019-03-04T22:19:08.890Z,17.83
2019-03-04T22:21:38.840Z,14.93
2019-03-04T22:24:09.760Z,15.23
2019-03-04T22:26:39.800Z,14.63
2019-03-04T22:29:09.753Z,15.00
2019-03-04T22:31:39.803Z,18.30
2019-03-04T22:34:13.213Z,23.40
2019-03-04T22:36:43.090Z,17.17
2019-03-04T22:39:13.098Z,15.47
2019-03-04T22:41:43.368Z,15.00
2019-03-04T22:44:14.811Z,16.50
2019-03-04T22:46:44.673Z,15.37
2019-03-04T22:49:14.570Z,16.77
2019-03-04T22:51:44.502Z,15.93
2019-03-04T22:54:14.410Z,16.83
2019-03-04T22:56:44.282Z,19.63
2019-03-04T22:59:14.270Z,19.23
2019-03-04T23:01:47.481Z,17.97
2019-03-04T23:04:19.267Z,16.50
2019-03-04T23:07:03.443Z,12.97
2019-03-04T23:09:42.372Z,12.60
2019-03-04T23:12:23.523Z,14.07
2019-03-04T23:14:53.705Z,12.27
2019-03-04T23:17:23.543Z,13.30
2019-03-04T23:19:53.414Z,10.87
2019-03-04T23:22:23.291Z,14.60
2019-03-04T23:24:59.442Z,13.67
2019-03-04T23:27:30.810Z,16.33
2019-03-04T23:30:00.701Z,12.40
2019-03-04T23:32:49.805Z,13.03
2019-03-04T23:35:19.649Z,14.63
2019-03-04T23:37:49.583Z,14.50
2019-03-04T23:40:19.458Z,14.57
2019-03-04T23:42:49.305Z,10.03
2019-03-04T23:45:19.093Z,12.23
2019-03-04T23:47:48.949Z,10.63
2019-03-04T23:50:23.958Z,13.07
2019-03-04T23:52:53.796Z,10.93
2019-03-04T23:55:23.717Z,14.37
2019-03-04T23:57:53.508Z,11.97
